sensor_id;sensor_type;location;lat;lon;timestamp;P1;durP1;ratioP1;P2;durP2;ratioP2
36551;SDS011;22559;54.176;12.102;2023-09-18T00:00:47;12.00;;;9.60;;
36551;SDS011;22559;54.176;12.102;2023-09-18T00:03:20;10.27;;;9.13;;
36551;SDS011;22559;54.176;12.102;2023-09-18T00:05:49;11.32;;;8.63;;
36551;SDS011;22559;54.176;12.102;2023-09-18T00:08:15;10.00;;;8.98;;
36551;SDS011;22559;54.176;12.102;2023-09-18T00:10:42;13.05;;;9.23;;
36551;SDS011;22559;54.176;12.102;2023-09-18T00:13:11;10.45;;;9.32;;
36551;SDS011;22559;54.176;12.102;2023-09-18T00:15:36;10.23;;;9.23;;
36551;SDS011;22559;54.176;12.102;2023-09-18T00:18:03;11.30;;;9.07;;
36551;SDS011;22559;54.176;12.102;2023-09-18T00:20:29;10.60;;;9.30;;
36551;SDS011;22559;54.176;12.102;2023-09-18T00:22:54;12.30;;;9.35;;
36551;SDS011;22559;54.176;12.102;2023-09-18T00:25:21;16.15;;;9.57;;
36551;SDS011;22559;54.176;12.102;2023-09-18T00:27:47;11.73;;;9.52;;
36551;SDS011;22559;54.176;12.102;2023-09-18T00:30:13;11.80;;;9.57;;
36551;SDS011;22559;54.176;12.102;2023-09-18T00:32:38;11.43;;;9.77;;
36551;SDS011;22559;54.176;12.102;2023-09-18T00:35:04;13.02;;;10.23;;
36551;SDS011;22559;54.176;12.102;2023-09-18T00:37:30;10.57;;;9.27;;
36551;SDS011;22559;54.176;12.102;2023-09-18T00:39:55;9.93;;;8.98;;
36551;SDS011;22559;54.176;12.102;2023-09-18T00:42:21;12.45;;;9.75;;
36551;SDS011;22559;54.176;12.102;2023-09-18T00:44:47;11.63;;;10.00;;
36551;SDS011;22559;54.176;12.102;2023-09-18T00:47:14;11.45;;;9.25;;
36551;SDS011;22559;54.176;12.102;2023-09-18T00:49:43;11.63;;;9.27;;
36551;SDS011;22559;54.176;12.102;2023-09-18T00:52:12;13.02;;;9.40;;
36551;SDS011;22559;54.176;12.102;2023-09-18T00:54:39;10.82;;;9.40;;
36551;SDS011;22559;54.176;12.102;2023-09-18T00:57:07;15.35;;;9.52;;
36551;SDS011;22559;54.176;12.102;2023-09-18T00:59:35;11.35;;;9.88;;
36551;SDS011;22559;54.176;12.102;2023-09-18T01:02:01;10.23;;;9.13;;
36551;SDS011;22559;54.176;12.102;2023-09-18T01:04:28;11.80;;;9.48;;
36551;SDS011;22559;54.176;12.102;2023-09-18T01:06:55;13.43;;;9.57;;
36551;SDS011;22559;54.176;12.102;2023-09-18T01:09:23;11.52;;;9.13;;
36551;SDS011;22559;54.176;12.102;2023-09-18T01:11:50;12.85;;;8.95;;
36551;SDS011;22559;54.176;12.102;2023-09-18T01:17:48;13.20;;;9.77;;
36551;SDS011;22559;54.176;12.102;2023-09-18T01:20:14;11.20;;;9.82;;
36551;SDS011;22559;54.176;12.102;2023-09-18T01:22:40;10.82;;;9.45;;
36551;SDS011;22559;54.176;12.102;2023-09-18T01:25:05;13.07;;;10.13;;
36551;SDS011;22559;54.176;12.102;2023-09-18T01:27:32;10.40;;;9.18;;
36551;SDS011;22559;54.176;12.102;2023-09-18T01:29:57;11.93;;;9.73;;
36551;SDS011;22559;54.176;12.102;2023-09-18T01:32:24;11.05;;;9.48;;
36551;SDS011;22559;54.176;12.102;2023-09-18T01:34:53;13.90;;;10.23;;
36551;SDS011;22559;54.176;12.102;2023-09-18T01:37:23;12.13;;;10.13;;
36551;SDS011;22559;54.176;12.102;2023-09-18T01:39:51;13.77;;;9.70;;
36551;SDS011;22559;54.176;12.102;2023-09-18T01:42:17;11.30;;;9.77;;
36551;SDS011;22559;54.176;12.102;2023-09-18T01:44:44;12.18;;;9.32;;
36551;SDS011;22559;54.176;12.102;2023-09-18T01:47:14;10.88;;;9.75;;
36551;SDS011;22559;54.176;12.102;2023-09-18T01:49:42;11.48;;;9.77;;
36551;SDS011;22559;54.176;12.102;2023-09-18T01:52:08;11.82;;;10.05;;
36551;SDS011;22559;54.176;12.102;2023-09-18T01:54:35;13.77;;;10.20;;
36551;SDS011;22559;54.176;12.102;2023-09-18T01:57:01;12.75;;;10.30;;
36551;SDS011;22559;54.176;12.102;2023-09-18T01:59:27;13.13;;;10.02;;
36551;SDS011;22559;54.176;12.102;2023-09-18T02:01:53;11.63;;;9.48;;
36551;SDS011;22559;54.176;12.102;2023-09-18T02:04:20;10.63;;;9.52;;
36551;SDS011;22559;54.176;12.102;2023-09-18T02:06:46;10.65;;;9.45;;
36551;SDS011;22559;54.176;12.102;2023-09-18T02:09:13;11.15;;;9.68;;
36551;SDS011;22559;54.176;12.102;2023-09-18T02:11:40;12.90;;;10.23;;
36551;SDS011;22559;54.176;12.102;2023-09-18T02:14:08;12.55;;;10.00;;
36551;SDS011;22559;54.176;12.102;2023-09-18T02:16:35;10.77;;;9.68;;
36551;SDS011;22559;54.176;12.102;2023-09-18T02:19:11;15.13;;;10.32;;
36551;SDS011;22559;54.176;12.102;2023-09-18T02:21:45;12.38;;;10.70;;
36551;SDS011;22559;54.176;12.102;2023-09-18T02:24:10;12.07;;;10.52;;
36551;SDS011;22559;54.176;12.102;2023-09-18T02:26:36;14.18;;;11.00;;
36551;SDS011;22559;54.176;12.102;2023-09-18T02:29:04;12.77;;;9.98;;
36551;SDS011;22559;54.176;12.102;2023-09-18T02:31:36;13.52;;;10.50;;
36551;SDS011;22559;54.176;12.102;2023-09-18T02:34:01;11.40;;;10.18;;
36551;SDS011;22559;54.176;12.102;2023-09-18T02:36:27;12.38;;;10.00;;
36551;SDS011;22559;54.176;12.102;2023-09-18T02:38:52;11.98;;;10.50;;
36551;SDS011;22559;54.176;12.102;2023-09-18T02:41:18;12.60;;;10.60;;
36551;SDS011;22559;54.176;12.102;2023-09-18T02:43:44;13.52;;;10.90;;
36551;SDS011;22559;54.176;12.102;2023-09-18T02:46:09;15.55;;;11.70;;
36551;SDS011;22559;54.176;12.102;2023-09-18T02:48:35;12.02;;;10.70;;
36551;SDS011;22559;54.176;12.102;2023-09-18T02:51:01;13.00;;;11.17;;
36551;SDS011;22559;54.176;12.102;2023-09-18T02:53:27;12.43;;;11.07;;
36551;SDS011;22559;54.176;12.102;2023-09-18T02:55:54;12.80;;;10.55;;
36551;SDS011;22559;54.176;12.102;2023-09-18T02:58:21;20.65;;;12.23;;
36551;SDS011;22559;54.176;12.102;2023-09-18T03:00:48;12.55;;;10.70;;
36551;SDS011;22559;54.176;12.102;2023-09-18T03:03:15;14.70;;;10.80;;
36551;SDS011;22559;54.176;12.102;2023-09-18T03:05:41;15.05;;;11.30;;
36551;SDS011;22559;54.176;12.102;2023-09-18T03:08:08;15.18;;;11.55;;
36551;SDS011;22559;54.176;12.102;2023-09-18T03:10:35;16.95;;;11.43;;
36551;SDS011;22559;54.176;12.102;2023-09-18T03:13:02;14.77;;;11.27;;
36551;SDS011;22559;54.176;12.102;2023-09-18T03:15:28;16.70;;;11.52;;
36551;SDS011;22559;54.176;12.102;2023-09-18T03:17:55;13.15;;;10.45;;
36551;SDS011;22559;54.176;12.102;2023-09-18T03:20:26;14.98;;;11.73;;
36551;SDS011;22559;54.176;12.102;2023-09-18T03:22:54;12.30;;;11.00;;
36551;SDS011;22559;54.176;12.102;2023-09-18T03:25:20;14.82;;;11.40;;
36551;SDS011;22559;54.176;12.102;2023-09-18T03:27:47;14.40;;;11.20;;
36551;SDS011;22559;54.176;12.102;2023-09-18T03:30:12;15.73;;;10.93;;
36551;SDS011;22559;54.176;12.102;2023-09-18T03:32:40;16.55;;;10.88;;
36551;SDS011;22559;54.176;12.102;2023-09-18T03:35:07;13.20;;;11.50;;
36551;SDS011;22559;54.176;12.102;2023-09-18T03:37:40;15.60;;;10.70;;
36551;SDS011;22559;54.176;12.102;2023-09-18T03:40:06;12.80;;;11.00;;
36551;SDS011;22559;54.176;12.102;2023-09-18T03:42:33;13.15;;;10.93;;
36551;SDS011;22559;54.176;12.102;2023-09-18T03:44:59;13.98;;;11.45;;
36551;SDS011;22559;54.176;12.102;2023-09-18T03:47:25;13.75;;;11.10;;
36551;SDS011;22559;54.176;12.102;2023-09-18T03:49:50;12.55;;;11.20;;
36551;SDS011;22559;54.176;12.102;2023-09-18T03:52:16;13.88;;;10.70;;
36551;SDS011;22559;54.176;12.102;2023-09-18T03:54:42;14.13;;;11.27;;
36551;SDS011;22559;54.176;12.102;2023-09-18T03:57:07;13.15;;;11.65;;
36551;SDS011;22559;54.176;12.102;2023-09-18T03:59:33;13.13;;;11.30;;
36551;SDS011;22559;54.176;12.102;2023-09-18T04:01:58;12.33;;;10.83;;
36551;SDS011;22559;54.176;12.102;2023-09-18T04:04:24;12.98;;;10.68;;
36551;SDS011;22559;54.176;12.102;2023-09-18T04:06:50;15.07;;;10.57;;
36551;SDS011;22559;54.176;12.102;2023-09-18T04:09:15;12.75;;;10.05;;
36551;SDS011;22559;54.176;12.102;2023-09-18T04:11:42;12.15;;;10.80;;
36551;SDS011;22559;54.176;12.102;2023-09-18T04:14:08;11.27;;;10.10;;
36551;SDS011;22559;54.176;12.102;2023-09-18T04:16:34;16.70;;;10.80;;
36551;SDS011;22559;54.176;12.102;2023-09-18T04:19:03;12.48;;;10.73;;
36551;SDS011;22559;54.176;12.102;2023-09-18T04:21:30;11.85;;;10.20;;
36551;SDS011;22559;54.176;12.102;2023-09-18T04:23:55;13.50;;;10.82;;
36551;SDS011;22559;54.176;12.102;2023-09-18T04:26:23;10.70;;;9.63;;
36551;SDS011;22559;54.176;12.102;2023-09-18T04:28:54;10.20;;;9.13;;
36551;SDS011;22559;54.176;12.102;2023-09-18T04:31:20;12.05;;;10.75;;
36551;SDS011;22559;54.176;12.102;2023-09-18T04:33:45;10.65;;;9.60;;
36551;SDS011;22559;54.176;12.102;2023-09-18T04:36:11;12.40;;;10.45;;
36551;SDS011;22559;54.176;12.102;2023-09-18T04:38:37;11.52;;;10.32;;
36551;SDS011;22559;54.176;12.102;2023-09-18T04:41:02;11.57;;;10.38;;
36551;SDS011;22559;54.176;12.102;2023-09-18T04:43:28;13.27;;;11.88;;
36551;SDS011;22559;54.176;12.102;2023-09-18T04:45:56;12.70;;;11.43;;
36551;SDS011;22559;54.176;12.102;2023-09-18T04:48:22;12.35;;;10.85;;
36551;SDS011;22559;54.176;12.102;2023-09-18T04:50:48;12.93;;;11.38;;
36551;SDS011;22559;54.176;12.102;2023-09-18T04:53:14;14.25;;;11.60;;
36551;SDS011;22559;54.176;12.102;2023-09-18T04:55:39;16.40;;;11.43;;
36551;SDS011;22559;54.176;12.102;2023-09-18T04:58:05;13.02;;;10.77;;
36551;SDS011;22559;54.176;12.102;2023-09-18T05:00:31;13.15;;;10.88;;
36551;SDS011;22559;54.176;12.102;2023-09-18T05:02:58;13.68;;;10.77;;
36551;SDS011;22559;54.176;12.102;2023-09-18T05:05:26;12.15;;;10.85;;
36551;SDS011;22559;54.176;12.102;2023-09-18T05:07:52;14.30;;;11.77;;
36551;SDS011;22559;54.176;12.102;2023-09-18T05:10:18;12.18;;;10.57;;
36551;SDS011;22559;54.176;12.102;2023-09-18T05:12:43;14.68;;;11.45;;
36551;SDS011;22559;54.176;12.102;2023-09-18T05:15:09;13.65;;;11.35;;
36551;SDS011;22559;54.176;12.102;2023-09-18T05:17:43;12.73;;;10.90;;
36551;SDS011;22559;54.176;12.102;2023-09-18T05:20:11;15.70;;;11.20;;
36551;SDS011;22559;54.176;12.102;2023-09-18T05:22:39;14.27;;;11.02;;
36551;SDS011;22559;54.176;12.102;2023-09-18T05:25:05;12.65;;;11.35;;
36551;SDS011;22559;54.176;12.102;2023-09-18T05:27:31;13.80;;;11.52;;
36551;SDS011;22559;54.176;12.102;2023-09-18T05:29:57;12.68;;;11.38;;
36551;SDS011;22559;54.176;12.102;2023-09-18T05:32:23;12.70;;;11.00;;
36551;SDS011;22559;54.176;12.102;2023-09-18T05:34:48;13.20;;;10.15;;
36551;SDS011;22559;54.176;12.102;2023-09-18T05:37:14;11.48;;;10.25;;
36551;SDS011;22559;54.176;12.102;2023-09-18T05:39:40;13.50;;;10.65;;
36551;SDS011;22559;54.176;12.102;2023-09-18T05:42:06;11.57;;;10.27;;
36551;SDS011;22559;54.176;12.102;2023-09-18T05:44:32;11.93;;;10.55;;
36551;SDS011;22559;54.176;12.102;2023-09-18T05:46:58;12.88;;;10.70;;
36551;SDS011;22559;54.176;12.102;2023-09-18T05:49:24;11.65;;;10.45;;
36551;SDS011;22559;54.176;12.102;2023-09-18T05:51:49;12.95;;;10.50;;
36551;SDS011;22559;54.176;12.102;2023-09-18T05:54:15;13.13;;;9.85;;
36551;SDS011;22559;54.176;12.102;2023-09-18T05:56:40;15.93;;;11.18;;
36551;SDS011;22559;54.176;12.102;2023-09-18T05:59:06;11.20;;;10.10;;
36551;SDS011;22559;54.176;12.102;2023-09-18T06:01:32;11.32;;;10.23;;
36551;SDS011;22559;54.176;12.102;2023-09-18T06:03:58;11.63;;;10.00;;
36551;SDS011;22559;54.176;12.102;2023-09-18T06:06:23;12.77;;;11.27;;
36551;SDS011;22559;54.176;12.102;2023-09-18T06:08:50;14.38;;;10.85;;
36551;SDS011;22559;54.176;12.102;2023-09-18T06:11:18;11.52;;;10.32;;
36551;SDS011;22559;54.176;12.102;2023-09-18T06:13:44;11.77;;;9.80;;
36551;SDS011;22559;54.176;12.102;2023-09-18T06:16:10;14.45;;;10.75;;
36551;SDS011;22559;54.176;12.102;2023-09-18T06:18:36;11.85;;;9.85;;
36551;SDS011;22559;54.176;12.102;2023-09-18T06:21:04;14.27;;;10.60;;
36551;SDS011;22559;54.176;12.102;2023-09-18T06:23:30;11.52;;;10.30;;
36551;SDS011;22559;54.176;12.102;2023-09-18T06:25:56;11.40;;;10.07;;
36551;SDS011;22559;54.176;12.102;2023-09-18T06:28:24;11.27;;;9.50;;
36551;SDS011;22559;54.176;12.102;2023-09-18T06:30:49;12.85;;;10.70;;
36551;SDS011;22559;54.176;12.102;2023-09-18T06:33:15;10.23;;;9.27;;
36551;SDS011;22559;54.176;12.102;2023-09-18T06:35:41;12.75;;;9.93;;
36551;SDS011;22559;54.176;12.102;2023-09-18T06:38:07;11.30;;;10.10;;
36551;SDS011;22559;54.176;12.102;2023-09-18T06:40:35;13.77;;;10.02;;
36551;SDS011;22559;54.176;12.102;2023-09-18T06:43:01;11.98;;;9.52;;
36551;SDS011;22559;54.176;12.102;2023-09-18T06:45:26;10.00;;;9.00;;
36551;SDS011;22559;54.176;12.102;2023-09-18T06:47:53;11.48;;;9.40;;
36551;SDS011;22559;54.176;12.102;2023-09-18T06:50:19;9.77;;;8.85;;
36551;SDS011;22559;54.176;12.102;2023-09-18T06:52:44;11.43;;;8.90;;
36551;SDS011;22559;54.176;12.102;2023-09-18T06:55:11;12.27;;;9.02;;
36551;SDS011;22559;54.176;12.102;2023-09-18T06:57:37;10.73;;;8.13;;
36551;SDS011;22559;54.176;12.102;2023-09-18T07:00:03;10.10;;;8.63;;
36551;SDS011;22559;54.176;12.102;2023-09-18T07:02:30;14.85;;;9.48;;
36551;SDS011;22559;54.176;12.102;2023-09-18T07:04:56;13.30;;;8.63;;
36551;SDS011;22559;54.176;12.102;2023-09-18T07:07:21;9.95;;;8.90;;
36551;SDS011;22559;54.176;12.102;2023-09-18T07:09:50;9.63;;;8.48;;
36551;SDS011;22559;54.176;12.102;2023-09-18T07:12:16;8.63;;;7.82;;
36551;SDS011;22559;54.176;12.102;2023-09-18T07:14:44;9.55;;;8.65;;
36551;SDS011;22559;54.176;12.102;2023-09-18T07:17:10;8.55;;;7.65;;
36551;SDS011;22559;54.176;12.102;2023-09-18T07:19:36;8.77;;;7.88;;
36551;SDS011;22559;54.176;12.102;2023-09-18T07:22:02;12.75;;;8.55;;
36551;SDS011;22559;54.176;12.102;2023-09-18T07:24:28;9.32;;;8.20;;
36551;SDS011;22559;54.176;12.102;2023-09-18T07:26:53;9.63;;;8.63;;
36551;SDS011;22559;54.176;12.102;2023-09-18T07:29:20;9.35;;;8.38;;
36551;SDS011;22559;54.176;12.102;2023-09-18T07:31:45;9.13;;;8.23;;
36551;SDS011;22559;54.176;12.102;2023-09-18T07:34:12;9.23;;;8.32;;
36551;SDS011;22559;54.176;12.102;2023-09-18T07:36:39;8.60;;;7.70;;
36551;SDS011;22559;54.176;12.102;2023-09-18T07:39:05;8.57;;;7.38;;
36551;SDS011;22559;54.176;12.102;2023-09-18T07:41:31;9.57;;;8.57;;
36551;SDS011;22559;54.176;12.102;2023-09-18T07:43:57;9.57;;;7.75;;
36551;SDS011;22559;54.176;12.102;2023-09-18T07:46:24;10.25;;;7.90;;
36551;SDS011;22559;54.176;12.102;2023-09-18T07:48:50;8.65;;;7.65;;
36551;SDS011;22559;54.176;12.102;2023-09-18T07:51:16;8.85;;;7.22;;
36551;SDS011;22559;54.176;12.102;2023-09-18T07:53:42;8.52;;;7.60;;
36551;SDS011;22559;54.176;12.102;2023-09-18T07:56:08;8.18;;;7.38;;
36551;SDS011;22559;54.176;12.102;2023-09-18T07:58:34;7.93;;;7.10;;
36551;SDS011;22559;54.176;12.102;2023-09-18T08:01:03;11.27;;;7.25;;
36551;SDS011;22559;54.176;12.102;2023-09-18T08:03:35;10.85;;;7.90;;
36551;SDS011;22559;54.176;12.102;2023-09-18T08:06:01;10.48;;;7.28;;
36551;SDS011;22559;54.176;12.102;2023-09-18T08:08:26;6.97;;;6.38;;
36551;SDS011;22559;54.176;12.102;2023-09-18T08:10:52;7.40;;;6.70;;
36551;SDS011;22559;54.176;12.102;2023-09-18T08:13:18;8.13;;;7.28;;
36551;SDS011;22559;54.176;12.102;2023-09-18T08:15:49;7.18;;;6.47;;
36551;SDS011;22559;54.176;12.102;2023-09-18T08:18:14;6.93;;;6.22;;
36551;SDS011;22559;54.176;12.102;2023-09-18T08:20:43;7.93;;;6.57;;
36551;SDS011;22559;54.176;12.102;2023-09-18T08:23:09;6.78;;;6.07;;
36551;SDS011;22559;54.176;12.102;2023-09-18T08:25:35;9.65;;;6.90;;
36551;SDS011;22559;54.176;12.102;2023-09-18T08:28:02;8.48;;;5.97;;
36551;SDS011;22559;54.176;12.102;2023-09-18T08:30:29;6.72;;;6.13;;
36551;SDS011;22559;54.176;12.102;2023-09-18T08:32:55;6.78;;;6.18;;
36551;SDS011;22559;54.176;12.102;2023-09-18T08:35:21;9.60;;;6.50;;
36551;SDS011;22559;54.176;12.102;2023-09-18T08:37:47;8.23;;;5.88;;
36551;SDS011;22559;54.176;12.102;2023-09-18T08:40:13;9.93;;;6.53;;
36551;SDS011;22559;54.176;12.102;2023-09-18T08:42:42;6.25;;;5.72;;
36551;SDS011;22559;54.176;12.102;2023-09-18T08:45:15;6.35;;;5.68;;
36551;SDS011;22559;54.176;12.102;2023-09-18T08:47:48;7.50;;;6.03;;
36551;SDS011;22559;54.176;12.102;2023-09-18T08:50:16;6.53;;;5.63;;
36551;SDS011;22559;54.176;12.102;2023-09-18T08:52:43;6.63;;;6.03;;
36551;SDS011;22559;54.176;12.102;2023-09-18T08:55:10;7.55;;;5.47;;
36551;SDS011;22559;54.176;12.102;2023-09-18T08:57:36;6.50;;;5.90;;
36551;SDS011;22559;54.176;12.102;2023-09-18T09:00:03;7.88;;;5.90;;
36551;SDS011;22559;54.176;12.102;2023-09-18T09:02:33;7.10;;;5.57;;
36551;SDS011;22559;54.176;12.102;2023-09-18T09:04:59;6.88;;;5.57;;
36551;SDS011;22559;54.176;12.102;2023-09-18T09:07:25;6.10;;;5.43;;
36551;SDS011;22559;54.176;12.102;2023-09-18T09:09:51;8.00;;;5.30;;
36551;SDS011;22559;54.176;12.102;2023-09-18T09:12:45;7.95;;;5.55;;
36551;SDS011;22559;54.176;12.102;2023-09-18T09:15:11;5.90;;;5.40;;
36551;SDS011;22559;54.176;12.102;2023-09-18T09:17:37;8.48;;;5.70;;
36551;SDS011;22559;54.176;12.102;2023-09-18T09:20:13;7.25;;;5.70;;
36551;SDS011;22559;54.176;12.102;2023-09-18T09:22:40;7.78;;;5.45;;
36551;SDS011;22559;54.176;12.102;2023-09-18T09:25:23;5.70;;;5.20;;
36551;SDS011;22559;54.176;12.102;2023-09-18T09:27:55;6.10;;;5.50;;
36551;SDS011;22559;54.176;12.102;2023-09-18T09:30:22;5.53;;;4.88;;
36551;SDS011;22559;54.176;12.102;2023-09-18T09:32:49;6.00;;;5.47;;
36551;SDS011;22559;54.176;12.102;2023-09-18T09:35:26;6.45;;;5.45;;
36551;SDS011;22559;54.176;12.102;2023-09-18T09:38:11;6.05;;;5.50;;
36551;SDS011;22559;54.176;12.102;2023-09-18T09:40:41;7.07;;;5.30;;
36551;SDS011;22559;54.176;12.102;2023-09-18T09:43:09;5.97;;;5.38;;
36551;SDS011;22559;54.176;12.102;2023-09-18T09:45:38;5.35;;;4.88;;
36551;SDS011;22559;54.176;12.102;2023-09-18T09:48:06;5.47;;;4.97;;
36551;SDS011;22559;54.176;12.102;2023-09-18T09:50:33;6.75;;;5.40;;
36551;SDS011;22559;54.176;12.102;2023-09-18T09:52:59;5.57;;;5.10;;
36551;SDS011;22559;54.176;12.102;2023-09-18T09:55:26;5.60;;;5.10;;
36551;SDS011;22559;54.176;12.102;2023-09-18T09:57:54;6.10;;;5.20;;
36551;SDS011;22559;54.176;12.102;2023-09-18T10:00:31;7.28;;;5.10;;
36551;SDS011;22559;54.176;12.102;2023-09-18T10:03:15;6.05;;;5.15;;
36551;SDS011;22559;54.176;12.102;2023-09-18T10:05:44;10.68;;;5.30;;
36551;SDS011;22559;54.176;12.102;2023-09-18T10:10:39;5.90;;;5.35;;
36551;SDS011;22559;54.176;12.102;2023-09-18T10:13:12;5.45;;;4.95;;
36551;SDS011;22559;54.176;12.102;2023-09-18T10:15:40;5.78;;;5.18;;
36551;SDS011;22559;54.176;12.102;2023-09-18T10:18:42;6.55;;;5.38;;
36551;SDS011;22559;54.176;12.102;2023-09-18T10:21:23;5.43;;;4.75;;
36551;SDS011;22559;54.176;12.102;2023-09-18T10:26:55;4.93;;;4.53;;
36551;SDS011;22559;54.176;12.102;2023-09-18T10:29:26;5.35;;;4.85;;
36551;SDS011;22559;54.176;12.102;2023-09-18T10:31:53;8.30;;;5.35;;
36551;SDS011;22559;54.176;12.102;2023-09-18T10:34:20;5.93;;;4.70;;
36551;SDS011;22559;54.176;12.102;2023-09-18T10:36:52;5.32;;;4.93;;
36551;SDS011;22559;54.176;12.102;2023-09-18T10:39:19;5.90;;;5.30;;
36551;SDS011;22559;54.176;12.102;2023-09-18T10:41:51;7.50;;;4.78;;
36551;SDS011;22559;54.176;12.102;2023-09-18T10:44:17;5.70;;;4.85;;
36551;SDS011;22559;54.176;12.102;2023-09-18T10:46:47;4.65;;;4.32;;
36551;SDS011;22559;54.176;12.102;2023-09-18T10:49:17;5.15;;;4.70;;
36551;SDS011;22559;54.176;12.102;2023-09-18T10:51:44;11.18;;;4.47;;
36551;SDS011;22559;54.176;12.102;2023-09-18T10:54:15;5.22;;;4.78;;
36551;SDS011;22559;54.176;12.102;2023-09-18T10:56:42;5.32;;;4.25;;
36551;SDS011;22559;54.176;12.102;2023-09-18T10:59:08;4.63;;;4.30;;
36551;SDS011;22559;54.176;12.102;2023-09-18T11:01:34;5.20;;;4.70;;
36551;SDS011;22559;54.176;12.102;2023-09-18T11:04:04;4.82;;;4.30;;
36551;SDS011;22559;54.176;12.102;2023-09-18T11:09:25;5.03;;;4.57;;
36551;SDS011;22559;54.176;12.102;2023-09-18T11:11:52;4.90;;;4.50;;
36551;SDS011;22559;54.176;12.102;2023-09-18T11:14:23;8.63;;;4.32;;
36551;SDS011;22559;54.176;12.102;2023-09-18T11:17:06;7.55;;;5.00;;
36551;SDS011;22559;54.176;12.102;2023-09-18T11:19:59;4.55;;;4.15;;
36551;SDS011;22559;54.176;12.102;2023-09-18T11:22:27;4.65;;;4.35;;
36551;SDS011;22559;54.176;12.102;2023-09-18T11:24:53;4.88;;;4.32;;
36551;SDS011;22559;54.176;12.102;2023-09-18T11:27:23;5.50;;;4.53;;
36551;SDS011;22559;54.176;12.102;2023-09-18T11:29:51;4.82;;;4.43;;
36551;SDS011;22559;54.176;12.102;2023-09-18T11:32:36;8.52;;;4.95;;
36551;SDS011;22559;54.176;12.102;2023-09-18T11:35:07;5.00;;;4.53;;
36551;SDS011;22559;54.176;12.102;2023-09-18T11:37:33;6.20;;;4.82;;
36551;SDS011;22559;54.176;12.102;2023-09-18T11:40:00;4.80;;;4.40;;
36551;SDS011;22559;54.176;12.102;2023-09-18T11:42:25;5.03;;;4.63;;
36551;SDS011;22559;54.176;12.102;2023-09-18T11:44:51;6.55;;;4.25;;
36551;SDS011;22559;54.176;12.102;2023-09-18T11:47:19;8.93;;;5.57;;
36551;SDS011;22559;54.176;12.102;2023-09-18T11:49:52;5.07;;;4.68;;
36551;SDS011;22559;54.176;12.102;2023-09-18T11:52:25;7.97;;;5.25;;
36551;SDS011;22559;54.176;12.102;2023-09-18T11:54:53;8.77;;;5.03;;
36551;SDS011;22559;54.176;12.102;2023-09-18T11:57:20;5.57;;;5.07;;
36551;SDS011;22559;54.176;12.102;2023-09-18T11:59:46;5.50;;;5.00;;
36551;SDS011;22559;54.176;12.102;2023-09-18T12:02:12;5.93;;;4.70;;
36551;SDS011;22559;54.176;12.102;2023-09-18T12:04:45;5.93;;;4.60;;
36551;SDS011;22559;54.176;12.102;2023-09-18T12:07:14;6.50;;;4.88;;
36551;SDS011;22559;54.176;12.102;2023-09-18T12:09:40;4.95;;;4.55;;
36551;SDS011;22559;54.176;12.102;2023-09-18T12:12:06;6.10;;;5.00;;
36551;SDS011;22559;54.176;12.102;2023-09-18T12:14:33;5.25;;;4.85;;
36551;SDS011;22559;54.176;12.102;2023-09-18T12:17:02;5.65;;;5.07;;
36551;SDS011;22559;54.176;12.102;2023-09-18T12:19:29;5.82;;;5.00;;
36551;SDS011;22559;54.176;12.102;2023-09-18T12:21:55;5.38;;;4.95;;
36551;SDS011;22559;54.176;12.102;2023-09-18T12:24:22;5.63;;;5.05;;
36551;SDS011;22559;54.176;12.102;2023-09-18T12:26:48;6.65;;;4.90;;
36551;SDS011;22559;54.176;12.102;2023-09-18T12:29:15;4.82;;;4.35;;
36551;SDS011;22559;54.176;12.102;2023-09-18T12:31:41;5.90;;;5.43;;
36551;SDS011;22559;54.176;12.102;2023-09-18T12:34:17;5.10;;;4.60;;
36551;SDS011;22559;54.176;12.102;2023-09-18T12:36:43;7.25;;;4.60;;
36551;SDS011;22559;54.176;12.102;2023-09-18T12:39:12;5.85;;;4.95;;
36551;SDS011;22559;54.176;12.102;2023-09-18T12:41:41;5.18;;;4.78;;
36551;SDS011;22559;54.176;12.102;2023-09-18T12:44:08;5.15;;;4.75;;
36551;SDS011;22559;54.176;12.102;2023-09-18T12:46:35;8.23;;;5.93;;
36551;SDS011;22559;54.176;12.102;2023-09-18T12:49:15;5.25;;;4.85;;
36551;SDS011;22559;54.176;12.102;2023-09-18T12:51:44;7.40;;;5.32;;
36551;SDS011;22559;54.176;12.102;2023-09-18T12:54:09;5.80;;;4.93;;
36551;SDS011;22559;54.176;12.102;2023-09-18T12:56:40;5.32;;;4.93;;
36551;SDS011;22559;54.176;12.102;2023-09-18T12:59:06;5.80;;;5.22;;
36551;SDS011;22559;54.176;12.102;2023-09-18T13:01:32;5.55;;;5.05;;
36551;SDS011;22559;54.176;12.102;2023-09-18T13:03:57;4.85;;;4.45;;
36551;SDS011;22559;54.176;12.102;2023-09-18T13:06:30;5.10;;;4.57;;
36551;SDS011;22559;54.176;12.102;2023-09-18T13:09:01;5.20;;;4.72;;
36551;SDS011;22559;54.176;12.102;2023-09-18T13:11:56;4.80;;;4.50;;
36551;SDS011;22559;54.176;12.102;2023-09-18T13:14:22;5.28;;;4.72;;
36551;SDS011;22559;54.176;12.102;2023-09-18T13:16:48;8.18;;;4.45;;
36551;SDS011;22559;54.176;12.102;2023-09-18T13:19:13;6.80;;;4.93;;
36551;SDS011;22559;54.176;12.102;2023-09-18T13:21:45;8.48;;;4.60;;
36551;SDS011;22559;54.176;12.102;2023-09-18T13:24:28;4.97;;;4.57;;
36551;SDS011;22559;54.176;12.102;2023-09-18T13:26:55;5.65;;;4.35;;
36551;SDS011;22559;54.176;12.102;2023-09-18T13:29:22;5.10;;;4.45;;
36551;SDS011;22559;54.176;12.102;2023-09-18T13:31:49;7.72;;;4.80;;
36551;SDS011;22559;54.176;12.102;2023-09-18T13:34:15;6.15;;;4.28;;
36551;SDS011;22559;54.176;12.102;2023-09-18T13:36:46;4.65;;;4.10;;
36551;SDS011;22559;54.176;12.102;2023-09-18T13:39:12;7.10;;;4.35;;
36551;SDS011;22559;54.176;12.102;2023-09-18T13:41:39;8.57;;;4.40;;
36551;SDS011;22559;54.176;12.102;2023-09-18T13:44:06;5.75;;;4.50;;
36551;SDS011;22559;54.176;12.102;2023-09-18T13:46:32;8.30;;;4.00;;
36551;SDS011;22559;54.176;12.102;2023-09-18T13:49:01;7.25;;;4.47;;
36551;SDS011;22559;54.176;12.102;2023-09-18T13:51:28;6.85;;;4.15;;
36551;SDS011;22559;54.176;12.102;2023-09-18T13:53:55;5.32;;;4.03;;
36551;SDS011;22559;54.176;12.102;2023-09-18T13:56:21;7.03;;;4.25;;
36551;SDS011;22559;54.176;12.102;2023-09-18T13:58:47;5.57;;;4.28;;
36551;SDS011;22559;54.176;12.102;2023-09-18T14:01:13;4.55;;;4.15;;
36551;SDS011;22559;54.176;12.102;2023-09-18T14:03:40;6.75;;;4.38;;
36551;SDS011;22559;54.176;12.102;2023-09-18T14:06:08;7.60;;;4.40;;
36551;SDS011;22559;54.176;12.102;2023-09-18T14:08:34;8.23;;;4.32;;
36551;SDS011;22559;54.176;12.102;2023-09-18T14:11:00;5.20;;;4.68;;
36551;SDS011;22559;54.176;12.102;2023-09-18T14:13:25;6.22;;;4.50;;
36551;SDS011;22559;54.176;12.102;2023-09-18T14:15:51;4.70;;;4.30;;
36551;SDS011;22559;54.176;12.102;2023-09-18T14:18:17;5.60;;;4.78;;
36551;SDS011;22559;54.176;12.102;2023-09-18T14:20:43;5.72;;;4.63;;
36551;SDS011;22559;54.176;12.102;2023-09-18T14:23:09;6.35;;;3.92;;
36551;SDS011;22559;54.176;12.102;2023-09-18T14:25:34;6.05;;;4.63;;
36551;SDS011;22559;54.176;12.102;2023-09-18T14:28:00;6.28;;;4.20;;
36551;SDS011;22559;54.176;12.102;2023-09-18T14:30:26;6.65;;;4.10;;
36551;SDS011;22559;54.176;12.102;2023-09-18T14:32:56;7.57;;;3.97;;
36551;SDS011;22559;54.176;12.102;2023-09-18T14:35:22;4.68;;;4.03;;
36551;SDS011;22559;54.176;12.102;2023-09-18T14:37:48;6.03;;;3.63;;